Time;durP1;ratioP1;P1;durP2;ratioP2;P2;SDS_P1;SDS_P2;PMS_P1;PMS_P2;Temp;Humidity;BMP_temperature;BMP_pressure;BME280_temperature;BME280_humidity;BME280_pressure;Samples;Min_cycle;Max_cycle;Signal;HPM_P1;HPM_P2
2022/12/05 00:01:25;;;;;;;19.98;18.70;;;;;;;9.33;63.96;102933.88;4977736;28;103685;-52
2022/12/05 00:03:53;;;;;;;18.20;16.92;;;;;;;9.35;64.74;102948.94;4975860;28;103911;-52
2022/12/05 00:06:22;;;;;;;18.30;16.85;;;;;;;9.33;64.17;102950.19;4984571;28;102580;-52
2022/12/05 00:08:49;;;;;;;17.88;16.58;;;;;;;9.32;64.33;102952.06;4972153;28;102046;-53
2022/12/05 00:11:22;;;;;;;17.08;15.90;;;;;;;9.31;64.37;102947.69;4982561;28;102373;-52
2022/12/05 00:13:51;;;;;;;19.20;17.70;;;;;;;9.32;64.23;102949.34;4969825;28;104343;-52
2022/12/05 08:28:46;;;;;;;22.33;20.92;;;;;;;9.34;64.42;102947.28;5057268;27;102533;-53
2022/12/05 08:31:16;;;;;;;15.00;14.00;;;;;;;9.31;64.47;102942.25;5054954;27;102352;-52
2022/12/05 08:33:43;;;;;;;12.45;11.63;;;;;;;9.26;63.80;102942.03;5045712;27;103559;-53
2022/12/05 08:36:12;;;;;;;11.85;10.98;;;;;;;9.26;64.84;102941.19;5049473;27;102607;-52
2022/12/05 08:49:43;;;;;;;49.17;46.42;;;;;;;9.27;63.76;102934.75;5027750;27;102410;-53
2022/12/05 08:52:12;;;;;;;22.52;21.15;;;;;;;9.26;64.02;102939.31;4978280;28;102168;-52
2022/12/05 08:54:38;;;;;;;19.42;18.10;;;;;;;9.27;64.41;102932.84;4959092;28;103524;-52
2022/12/05 08:57:05;;;;;;;19.77;18.52;;;;;;;9.27;64.45;102924.72;4962961;28;102509;-52
2022/12/05 08:59:31;;;;;;;18.52;17.13;;;;;;;9.25;64.07;102926.78;4955974;28;102509;-52
2022/12/05 09:01:58;;;;;;;18.38;17.08;;;;;;;9.24;64.27;102919.69;4956386;28;102178;-53
2022/12/05 09:04:26;;;;;;;16.27;15.18;;;;;;;9.23;64.43;102931.59;4956294;28;103906;-52
2022/12/05 09:06:53;;;;;;;16.42;15.30;;;;;;;9.24;64.13;102930.56;4958629;28;102055;-53
2022/12/05 09:09:20;;;;;;;16.55;15.48;;;;;;;9.22;64.21;102927.19;4971347;28;102515;-52
2022/12/05 09:11:49;;;;;;;16.08;14.88;;;;;;;9.23;63.68;102933.47;4961452;28;102352;-52
2022/12/05 09:14:17;;;;;;;15.48;14.30;;;;;;;9.22;64.68;102927.19;4963352;28;104325;-52
2022/12/05 09:16:45;;;;;;;15.50;14.48;;;;;;;9.23;64.44;102930.75;4962405;28;102304;-52
2022/12/05 09:19:13;;;;;;;15.82;14.63;;;;;;;9.21;63.97;102930.97;4959670;28;102577;-52
2022/12/05 09:21:41;;;;;;;17.00;15.80;;;;;;;9.20;64.71;102928.47;4954557;28;102205;-52
2022/12/05 09:24:10;;;;;;;16.33;15.20;;;;;;;9.20;64.93;102923.03;4966118;28;104125;-52
2022/12/05 09:26:37;;;;;;;15.07;14.13;;;;;;;9.21;64.03;102914.66;4954018;28;102038;-53
2022/12/05 09:29:03;;;;;;;14.80;13.73;;;;;;;9.20;64.50;102907.56;4963650;28;102555;-52
2022/12/05 09:31:30;;;;;;;16.08;14.98;;;;;;;9.21;64.19;102909.22;4960289;28;102620;-53
2022/12/05 09:33:57;;;;;;;15.32;14.32;;;;;;;9.22;64.14;102910.06;4951721;28;103998;-52
2022/12/05 09:36:25;;;;;;;16.23;15.18;;;;;;;9.23;64.01;102896.28;4954035;28;104907;-52
2022/12/05 09:38:53;;;;;;;17.47;16.07;;;;;;;9.23;63.70;102890.84;4958736;28;102253;-52
2022/12/05 09:42:04;;;;;;;16.00;14.95;;;;;;;9.19;63.94;102900.44;4973280;28;103006;-52
2022/12/05 09:44:53;;;;;;;16.45;15.13;;;;;;;9.19;64.18;102889.56;4971411;28;103918;-52
2022/12/05 09:47:37;;;;;;;15.90;14.50;;;;;;;9.19;63.81;102884.13;4957337;28;103233;-53
2022/12/05 09:50:13;;;;;;;15.15;14.15;;;;;;;9.20;63.88;102885.00;4959002;28;104997;-53
2022/12/05 09:52:45;;;;;;;16.73;15.55;;;;;;;9.23;64.39;102884.56;4959792;28;102894;-52
2022/12/05 09:55:14;;;;;;;16.48;15.38;;;;;;;9.20;64.03;102885.00;4958567;28;104087;-53
2022/12/05 09:57:48;;;;;;;17.75;16.50;;;;;;;9.20;64.17;102880.41;4958959;28;102689;-52
2022/12/05 10:00:16;;;;;;;14.93;13.68;;;;;;;9.18;63.85;102878.94;4957471;28;102860;-52
2022/12/05 10:02:52;;;;;;;16.13;15.13;;;;;;;9.19;64.18;102878.69;4956827;28;102263;-53
2022/12/05 10:05:24;;;;;;;15.70;14.60;;;;;;;9.18;64.23;102868.88;4957773;28;104099;-53
2022/12/05 10:08:01;;;;;;;15.65;14.65;;;;;;;9.14;64.60;102875.78;4957073;28;103112;-52
2022/12/05 10:10:33;;;;;;;16.40;15.15;;;;;;;9.12;63.91;102872.44;4959658;28;102264;-52
2022/12/05 10:13:23;;;;;;;16.65;15.52;;;;;;;9.08;63.44;102872.00;4958522;28;102142;-52
2022/12/05 10:15:52;;;;;;;14.15;13.15;;;;;;;9.09;63.81;102862.00;4958794;28;103785;-52
2022/12/05 10:18:30;;;;;;;16.38;15.27;;;;;;;9.10;63.79;102858.25;4962185;28;102712;-52
2022/12/05 10:21:02;;;;;;;15.57;14.48;;;;;;;9.11;64.38;102859.91;4958381;28;103038;-52
2022/12/05 10:23:37;;;;;;;17.08;15.85;;;;;;;9.08;63.04;102861.16;4964259;28;102844;-52
2022/12/05 10:26:08;;;;;;;15.80;14.68;;;;;;;9.08;63.00;102854.88;4969086;28;103881;-52
2022/12/05 10:28:41;;;;;;;14.13;13.18;;;;;;;9.06;62.86;102857.81;4967494;28;102585;-53
2022/12/05 10:31:13;;;;;;;16.70;15.50;;;;;;;9.09;64.09;102867.44;4968088;28;102068;-53
2022/12/05 10:33:46;;;;;;;16.30;15.02;;;;;;;9.04;62.84;102854.47;4966604;28;102459;-52
2022/12/05 10:36:13;;;;;;;16.13;15.02;;;;;;;9.02;63.82;102858.47;4974879;28;103810;-52
2022/12/05 10:38:42;;;;;;;17.00;15.80;;;;;;;9.04;63.19;102859.06;4964153;28;102321;-52
2022/12/05 10:41:11;;;;;;;16.23;15.13;;;;;;;9.02;63.08;102856.56;4968133;28;102522;-52
2022/12/05 10:43:40;;;;;;;;;;;;;;;9.04;64.43;102853.63;4969474;28;102559;-52
2022/12/05 10:46:07;;;;;;;14.55;13.45;;;;;;;9.06;63.30;102859.72;4958386;28;104008;-52
2022/12/05 10:48:36;;;;;;;15.00;14.00;;;;;;;9.06;64.14;102852.38;4969352;28;102264;-52
2022/12/05 10:51:03;;;;;;;17.17;15.95;;;;;;;9.06;63.71;102852.38;4971147;28;102150;-52
2022/12/05 10:53:38;;;;;;;16.70;15.55;;;;;;;9.10;64.17;102848.22;4969931;28;102502;-52
2022/12/05 10:56:39;;;;;;;16.52;15.43;;;;;;;9.15;63.52;102853.00;4965521;28;103910;-52
2022/12/05 10:59:10;;;;;;;16.75;15.65;;;;;;;9.19;63.65;102859.69;4961237;28;102536;-53
2022/12/05 11:01:42;;;;;;;14.55;13.55;;;;;;;9.24;64.01;102845.50;4964564;28;102231;-52
2022/12/05 11:04:19;;;;;;;16.77;15.48;;;;;;;9.25;63.53;102850.72;4963517;28;102816;-53
2022/12/05 11:06:55;;;;;;;16.05;15.00;;;;;;;9.28;63.65;102844.84;4964008;28;103924;-52
2022/12/05 11:09:25;;;;;;;17.92;16.67;;;;;;;9.27;63.57;102840.47;4961428;28;102084;-52
2022/12/05 11:12:15;;;;;;;16.33;15.23;;;;;;;9.27;63.31;102837.75;4971802;28;102548;-53
2022/12/05 11:14:58;;;;;;;17.73;16.52;;;;;;;9.28;63.74;102839.41;4953343;28;102251;-52
2022/12/05 11:17:29;;;;;;;18.00;16.80;;;;;;;9.24;63.58;102832.75;4966414;28;103940;-53
2022/12/05 11:19:55;;;;;;;16.80;15.70;;;;;;;9.27;63.31;102826.88;4965490;28;102121;-53
2022/12/05 11:22:30;;;;;;;18.25;17.05;;;;;;;9.28;63.50;102820.41;4969831;28;102816;-52
2022/12/05 11:24:57;;;;;;;16.80;15.65;;;;;;;9.28;64.00;102820.41;4964642;28;102797;-52
2022/12/05 11:27:27;;;;;;;16.92;15.80;;;;;;;9.29;63.93;102819.34;4970066;28;104234;-52
2022/12/05 11:29:58;;;;;;;18.52;17.30;;;;;;;9.30;63.64;102821.00;4968102;28;102224;-52
2022/12/05 11:32:26;;;;;;;18.60;17.35;;;;;;;9.32;63.64;102818.94;4967608;28;102241;-52
2022/12/05 11:35:00;;;;;;;19.33;17.97;;;;;;;9.33;63.35;102815.16;4969028;28;102218;-54
2022/12/05 11:37:30;;;;;;;17.20;16.08;;;;;;;9.31;63.91;102814.53;4968486;28;103996;-53
2022/12/05 11:40:13;;;;;;;17.55;16.33;;;;;;;9.31;63.54;102811.00;4961996;28;102519;-52
